Time;durP1;ratioP1;P1;durP2;ratioP2;P2;SDS_P1;SDS_P2;PMS_P1;PMS_P2;Temp;Humidity;BMP_temperature;BMP_pressure;BME280_temperature;BME280_humidity;BME280_pressure;Samples;Min_cycle;Max_cycle;Signal;HPM_P1;HPM_P2
2023/08/21 00:00:00;;;;;;;8.68;4.80;;;;;;;;;;7374817;19;20556;-69
2023/08/21 00:02:27;;;;;;;8.00;4.90;;;;;;;;;;7374790;19;20035;-71
2023/08/21 00:04:53;;;;;;;8.05;5.43;;;;;;;;;;7373960;19;20007;-72
2023/08/21 00:07:19;;;;;;;8.65;5.38;;;;;;;;;;7402722;19;20006;-71
2023/08/21 00:09:44;;;;;;;8.85;5.35;;;;;;;;;;7381631;19;20023;-71
2023/08/21 00:12:09;;;;;;;8.00;5.07;;;;;;;;;;7379110;19;20042;-70
2023/08/21 00:14:35;;;;;;;7.88;4.93;;;;;;;;;;7379845;19;20009;-71
2023/08/21 00:17:02;;;;;;;8.55;5.05;;;;;;;;;;7380564;19;20003;-71
2023/08/21 00:19:28;;;;;;;8.40;5.35;;;;;;;;;;7403296;19;20364;-71
2023/08/21 00:21:53;;;;;;;9.15;5.15;;;;;;;;;;7381768;19;19998;-71
2023/08/21 00:24:18;;;;;;;7.72;5.10;;;;;;;;;;7380054;19;20070;-71
2023/08/21 00:26:44;;;;;;;12.57;5.28;;;;;;;;;;7389660;19;20099;-71
2023/08/21 00:29:09;;;;;;;7.90;5.50;;;;;;;;;;7386315;19;20089;-71
2023/08/21 00:31:34;;;;;;;10.13;5.57;;;;;;;;;;7403699;19;20085;-71
2023/08/21 00:34:00;;;;;;;11.13;5.93;;;;;;;;;;7380787;19;20018;-71
2023/08/21 00:36:25;;;;;;;8.27;5.55;;;;;;;;;;7382861;19;20007;-71
2023/08/21 00:38:50;;;;;;;7.97;5.55;;;;;;;;;;7380875;19;20014;-71
2023/08/21 00:41:15;;;;;;;10.90;5.82;;;;;;;;;;7379817;19;20014;-71
2023/08/21 00:43:41;;;;;;;10.27;5.60;;;;;;;;;;7403965;19;20066;-71
2023/08/21 00:46:07;;;;;;;8.02;5.25;;;;;;;;;;7379160;19;20384;-71
2023/08/21 00:48:32;;;;;;;9.95;5.75;;;;;;;;;;7390031;19;20007;-71
2023/08/21 00:50:58;;;;;;;10.15;5.70;;;;;;;;;;7382153;19;20006;-70
2023/08/21 00:53:24;;;;;;;10.13;5.80;;;;;;;;;;7380650;19;20012;-72
2023/08/21 00:55:50;;;;;;;9.55;5.85;;;;;;;;;;7380537;19;20074;-71
2023/08/21 00:58:17;;;;;;;8.77;5.38;;;;;;;;;;7404873;19;20002;-71
2023/08/21 01:00:45;;;;;;;7.97;5.63;;;;;;;;;;7381703;19;20014;-71
2023/08/21 01:03:11;;;;;;;9.52;6.07;;;;;;;;;;7383688;19;20014;-71
2023/08/21 01:05:36;;;;;;;9.45;5.60;;;;;;;;;;7379977;19;20010;-71
2023/08/21 01:08:20;;;;;;;9.10;5.80;;;;;;;;;;7383820;19;20022;-72
2023/08/21 01:10:52;;;;;;;7.97;5.60;;;;;;;;;;7383137;19;20071;-70
2023/08/21 01:13:39;;;;;;;9.73;6.50;;;;;;;;;;7403935;19;20007;-72
2023/08/21 01:16:06;;;;;;;9.68;5.82;;;;;;;;;;7379372;19;20024;-71
2023/08/21 01:18:33;;;;;;;8.63;6.38;;;;;;;;;;7379675;19;20014;-70
2023/08/21 01:20:59;;;;;;;9.27;5.68;;;;;;;;;;7378973;19;20014;-70
2023/08/21 01:23:34;;;;;;;8.95;6.13;;;;;;;;;;7379432;19;20035;-71
2023/08/21 01:25:59;;;;;;;8.10;5.78;;;;;;;;;;7378644;19;20019;-72
2023/08/21 01:28:25;;;;;;;10.73;6.32;;;;;;;;;;7407906;19;20007;-70
2023/08/21 01:30:59;;;;;;;8.93;5.80;;;;;;;;;;7389105;19;20039;-71
2023/08/21 01:33:28;;;;;;;10.75;5.88;;;;;;;;;;7388279;19;20010;-71
2023/08/21 01:35:53;;;;;;;10.35;6.30;;;;;;;;;;7380767;19;20532;-70
2023/08/21 01:38:19;;;;;;;9.43;6.50;;;;;;;;;;7381339;19;20027;-70
2023/08/21 01:40:46;;;;;;;10.00;6.10;;;;;;;;;;7381456;19;20066;-71
2023/08/21 01:43:12;;;;;;;14.38;6.35;;;;;;;;;;7403484;19;20357;-71
2023/08/21 01:45:37;;;;;;;11.13;6.68;;;;;;;;;;7380597;19;20021;-71
2023/08/21 01:48:03;;;;;;;10.52;6.25;;;;;;;;;;7381796;19;20010;-72
2023/08/21 01:50:28;;;;;;;9.82;6.05;;;;;;;;;;7383801;19;20022;-71
2023/08/21 01:52:54;;;;;;;9.30;6.75;;;;;;;;;;7380583;19;20027;-72
2023/08/21 01:55:19;;;;;;;8.77;5.95;;;;;;;;;;7402109;19;20011;-70
2023/08/21 01:57:44;;;;;;;8.95;6.97;;;;;;;;;;7382215;19;20009;-71
2023/08/21 02:00:11;;;;;;;10.48;6.47;;;;;;;;;;7380580;19;20003;-71
2023/08/21 02:02:36;;;;;;;11.65;7.25;;;;;;;;;;7383066;19;20002;-71
2023/08/21 02:05:03;;;;;;;12.00;6.65;;;;;;;;;;7380854;19;20090;-71
2023/08/21 02:07:28;;;;;;;9.18;5.93;;;;;;;;;;7407231;19;20010;-70
2023/08/21 02:09:53;;;;;;;9.55;6.57;;;;;;;;;;7384369;19;20432;-72
2023/08/21 02:12:19;;;;;;;9.68;5.88;;;;;;;;;;7384157;19;20711;-71
2023/08/21 02:14:44;;;;;;;9.15;6.10;;;;;;;;;;7382587;19;20011;-70
2023/08/21 02:17:09;;;;;;;10.57;6.55;;;;;;;;;;7384165;19;20002;-70
2023/08/21 02:19:35;;;;;;;10.50;6.35;;;;;;;;;;7407153;19;19995;-70
2023/08/21 02:22:00;;;;;;;9.25;6.00;;;;;;;;;;7387193;19;20023;-70
2023/08/21 02:24:25;;;;;;;8.45;5.75;;;;;;;;;;7374315;19;20010;-70
2023/08/21 02:26:50;;;;;;;10.80;6.70;;;;;;;;;;7370689;19;20002;-70
2023/08/21 02:29:16;;;;;;;8.52;5.90;;;;;;;;;;7371999;19;20350;-71
2023/08/21 02:31:41;;;;;;;11.88;5.90;;;;;;;;;;7389422;19;20014;-70
2023/08/21 02:34:06;;;;;;;8.80;6.25;;;;;;;;;;7373708;19;20011;-70
2023/08/21 02:36:32;;;;;;;14.98;6.28;;;;;;;;;;7370405;19;20401;-69
2023/08/21 02:38:57;;;;;;;11.35;6.25;;;;;;;;;;7377598;19;20452;-70
2023/08/21 02:41:22;;;;;;;10.40;6.72;;;;;;;;;;7376110;19;20563;-71
2023/08/21 02:43:48;;;;;;;11.20;6.38;;;;;;;;;;7370232;19;20021;-71
2023/08/21 02:46:13;;;;;;;8.38;5.43;;;;;;;;;;7389909;19;20006;-71
2023/08/21 02:48:38;;;;;;;11.10;6.30;;;;;;;;;;7384377;19;20039;-71
2023/08/21 02:51:04;;;;;;;9.85;6.05;;;;;;;;;;7386025;19;20362;-70
2023/08/21 02:53:29;;;;;;;10.02;6.15;;;;;;;;;;7367212;19;20062;-70
2023/08/21 02:55:55;;;;;;;12.20;6.20;;;;;;;;;;7368117;19;20003;-71
2023/08/21 02:58:20;;;;;;;10.07;5.60;;;;;;;;;;7389674;19;20002;-70
2023/08/21 03:00:45;;;;;;;11.60;5.97;;;;;;;;;;7367244;19;20572;-71
2023/08/21 03:03:11;;;;;;;9.20;5.90;;;;;;;;;;7367796;19;20014;-71
2023/08/21 03:05:36;;;;;;;8.77;5.68;;;;;;;;;;7365047;19;20102;-71
2023/08/21 03:08:02;;;;;;;10.07;6.40;;;;;;;;;;7371108;19;19995;-71
2023/08/21 03:10:29;;;;;;;10.30;6.63;;;;;;;;;;7404477;19;19999;-70
2023/08/21 03:12:55;;;;;;;11.70;6.15;;;;;;;;;;7383124;19;20018;-70
2023/08/21 03:15:20;;;;;;;9.85;6.50;;;;;;;;;;7379542;19;20003;-70
2023/08/21 03:17:45;;;;;;;11.18;6.75;;;;;;;;;;7375336;19;20523;-70
2023/08/21 03:20:11;;;;;;;10.00;6.47;;;;;;;;;;7379486;19;20015;-71
2023/08/21 03:22:36;;;;;;;10.57;6.43;;;;;;;;;;7408092;19;20010;-70
2023/08/21 03:25:02;;;;;;;12.80;6.88;;;;;;;;;;7372979;19;20010;-70
2023/08/21 03:27:28;;;;;;;8.85;6.60;;;;;;;;;;7374579;19;20014;-70
2023/08/21 03:29:54;;;;;;;12.90;6.82;;;;;;;;;;7374579;19;20031;-70
2023/08/21 03:32:19;;;;;;;9.90;6.60;;;;;;;;;;7374230;19;20402;-70
2023/08/21 03:34:45;;;;;;;11.85;7.78;;;;;;;;;;7371794;19;20066;-71
2023/08/21 03:37:10;;;;;;;8.65;6.72;;;;;;;;;;7395599;19;20029;-71
2023/08/21 03:39:36;;;;;;;14.95;6.82;;;;;;;;;;7372563;19;20006;-71
2023/08/21 03:42:01;;;;;;;11.35;7.38;;;;;;;;;;7373943;19;20003;-71
2023/08/21 03:44:27;;;;;;;11.52;7.25;;;;;;;;;;7373460;19;20054;-71
2023/08/21 03:46:52;;;;;;;10.05;6.75;;;;;;;;;;7371732;19;20005;-71
2023/08/21 03:49:18;;;;;;;9.75;7.38;;;;;;;;;;7396111;19;20006;-71
2023/08/21 03:51:43;;;;;;;9.95;6.35;;;;;;;;;;7372066;19;20625;-71
2023/08/21 03:54:09;;;;;;;13.43;7.60;;;;;;;;;;7371306;19;20421;-71
2023/08/21 03:56:34;;;;;;;16.10;7.97;;;;;;;;;;7373696;19;20017;-70
2023/08/21 03:58:59;;;;;;;9.98;6.95;;;;;;;;;;7372757;19;20006;-71
2023/08/21 04:01:25;;;;;;;13.35;7.90;;;;;;;;;;7392893;19;20011;-70
2023/08/21 04:03:50;;;;;;;10.65;7.55;;;;;;;;;;7372327;19;20472;-70
2023/08/21 04:06:16;;;;;;;9.73;7.60;;;;;;;;;;7372059;19;20006;-70
2023/08/21 04:08:41;;;;;;;12.23;7.80;;;;;;;;;;7373153;19;20018;-70
2023/08/21 04:11:06;;;;;;;12.82;7.88;;;;;;;;;;7372893;19;20385;-71
2023/08/21 04:13:32;;;;;;;11.48;7.78;;;;;;;;;;7394344;19;20383;-71
2023/08/21 04:15:57;;;;;;;12.43;7.82;;;;;;;;;;7372315;19;19998;-71
2023/08/21 04:18:23;;;;;;;10.45;7.30;;;;;;;;;;7387911;19;20011;-71
2023/08/21 04:20:49;;;;;;;12.50;7.50;;;;;;;;;;7382428;19;20003;-70
2023/08/21 04:23:14;;;;;;;13.88;8.20;;;;;;;;;;7369125;19;20014;-70
2023/08/21 04:25:40;;;;;;;12.63;8.20;;;;;;;;;;7393328;19;20012;-71
2023/08/21 04:28:07;;;;;;;13.32;8.75;;;;;;;;;;7369831;19;20454;-70
2023/08/21 04:30:32;;;;;;;16.08;8.45;;;;;;;;;;7370038;19;20476;-71
2023/08/21 04:32:59;;;;;;;10.27;8.10;;;;;;;;;;7370946;19;20003;-71
2023/08/21 04:35:24;;;;;;;13.05;8.10;;;;;;;;;;7369437;19;19998;-70
2023/08/21 04:37:49;;;;;;;14.30;9.05;;;;;;;;;;7372810;19;20892;-70
2023/08/21 04:40:17;;;;;;;15.80;9.02;;;;;;;;;;7393884;19;20001;-69
2023/08/21 04:42:43;;;;;;;13.25;8.60;;;;;;;;;;7371019;19;20079;-70
2023/08/21 04:45:09;;;;;;;13.88;8.10;;;;;;;;;;7370637;19;20003;-70
2023/08/21 04:47:34;;;;;;;10.50;8.00;;;;;;;;;;7371785;19;20021;-70
2023/08/21 04:50:00;;;;;;;13.75;8.32;;;;;;;;;;7371626;19;20009;-71
2023/08/21 04:52:25;;;;;;;10.52;7.32;;;;;;;;;;7392888;19;20111;-70
2023/08/21 04:54:51;;;;;;;13.93;8.23;;;;;;;;;;7368811;19;19998;-70
2023/08/21 04:57:17;;;;;;;10.88;7.57;;;;;;;;;;7371050;19;20002;-70
2023/08/21 04:59:43;;;;;;;12.15;7.35;;;;;;;;;;7371424;19;20342;-70
2023/08/21 05:02:09;;;;;;;11.80;7.10;;;;;;;;;;7367414;19;20469;-71
2023/08/21 05:04:36;;;;;;;10.63;6.65;;;;;;;;;;7389990;19;20080;-70
2023/08/21 05:07:01;;;;;;;12.07;7.65;;;;;;;;;;7366425;19;20090;-70
2023/08/21 05:09:27;;;;;;;11.70;6.57;;;;;;;;;;7370906;19;20053;-70
2023/08/21 05:11:52;;;;;;;12.55;7.00;;;;;;;;;;7370985;19;20070;-70
2023/08/21 05:14:19;;;;;;;12.68;6.70;;;;;;;;;;7369248;19;20071;-69
2023/08/21 05:16:45;;;;;;;11.07;6.57;;;;;;;;;;7368172;19;20020;-70
2023/08/21 05:19:10;;;;;;;9.20;5.97;;;;;;;;;;7391300;19;20536;-69
2023/08/21 05:21:35;;;;;;;10.90;6.65;;;;;;;;;;7370529;19;20015;-70
2023/08/21 05:24:00;;;;;;;11.57;6.20;;;;;;;;;;7392441;19;20003;-69
2023/08/21 05:26:26;;;;;;;13.20;6.65;;;;;;;;;;7370599;19;20017;-69
2023/08/21 05:28:51;;;;;;;14.90;6.57;;;;;;;;;;7370619;19;20002;-70
2023/08/21 05:31:16;;;;;;;12.07;6.63;;;;;;;;;;7392335;19;20018;-71
2023/08/21 05:33:42;;;;;;;11.43;6.53;;;;;;;;;;7368217;19;20263;-71
2023/08/21 05:36:07;;;;;;;11.48;6.40;;;;;;;;;;7369950;19;20239;-74
2023/08/21 05:38:32;;;;;;;9.77;6.22;;;;;;;;;;7370801;19;20401;-72
2023/08/21 05:40:58;;;;;;;11.88;6.68;;;;;;;;;;7371745;19;20006;-70
2023/08/21 05:43:23;;;;;;;9.07;6.40;;;;;;;;;;7392619;19;20002;-69
2023/08/21 05:45:49;;;;;;;11.45;6.30;;;;;;;;;;7370314;19;20010;-71
2023/08/21 05:48:14;;;;;;;10.38;6.28;;;;;;;;;;7375717;19;20031;-71
2023/08/21 05:50:39;;;;;;;10.52;5.93;;;;;;;;;;7384382;19;20032;-71
2023/08/21 05:53:06;;;;;;;10.77;6.18;;;;;;;;;;7370984;19;20594;-71
2023/08/21 05:55:31;;;;;;;10.60;6.32;;;;;;;;;;7389695;19;20359;-71
2023/08/21 05:57:57;;;;;;;10.90;6.28;;;;;;;;;;7372217;19;20006;-69
2023/08/21 06:00:22;;;;;;;9.48;6.15;;;;;;;;;;7371710;19;20441;-70
2023/08/21 06:02:47;;;;;;;12.65;6.35;;;;;;;;;;7370189;19;20015;-69
2023/08/21 06:05:13;;;;;;;11.00;6.35;;;;;;;;;;7369606;19;20105;-69
2023/08/21 06:07:40;;;;;;;12.25;5.85;;;;;;;;;;7391657;19;20070;-70
2023/08/21 06:10:12;;;;;;;11.23;6.43;;;;;;;;;;7366649;19;20011;-72
2023/08/21 06:12:39;;;;;;;12.65;6.03;;;;;;;;;;7366804;19;20014;-72
2023/08/21 06:15:07;;;;;;;10.40;5.65;;;;;;;;;;7366133;19;20017;-73
2023/08/21 06:17:32;;;;;;;10.60;5.97;;;;;;;;;;7367122;19;20034;-73
2023/08/21 06:19:58;;;;;;;11.10;5.80;;;;;;;;;;7367266;19;20030;-73
2023/08/21 06:22:23;;;;;;;9.68;6.25;;;;;;;;;;7388367;19;20010;-72
2023/08/21 06:24:49;;;;;;;10.87;6.40;;;;;;;;;;7366689;19;20078;-73
2023/08/21 06:27:14;;;;;;;10.50;5.93;;;;;;;;;;7369365;19;20784;-73
2023/08/21 06:29:40;;;;;;;10.05;6.47;;;;;;;;;;7369168;19;20007;-69
2023/08/21 06:32:05;;;;;;;11.32;6.60;;;;;;;;;;7368578;19;20083;-72
2023/08/21 06:34:31;;;;;;;14.43;6.57;;;;;;;;;;7388699;19;20002;-72
2023/08/21 06:36:56;;;;;;;12.63;6.90;;;;;;;;;;7368794;19;20582;-72
2023/08/21 06:39:21;;;;;;;17.23;6.70;;;;;;;;;;7367243;19;20010;-72
2023/08/21 06:41:47;;;;;;;15.45;7.22;;;;;;;;;;7368117;19;20232;-72
2023/08/21 06:44:12;;;;;;;13.38;7.10;;;;;;;;;;7366268;19;20047;-73
2023/08/21 06:46:37;;;;;;;16.17;7.27;;;;;;;;;;7400846;19;20419;-72
2023/08/21 06:49:03;;;;;;;15.97;7.30;;;;;;;;;;7382793;19;20270;-72
2023/08/21 06:51:29;;;;;;;14.43;7.45;;;;;;;;;;7379937;19;20244;-73
2023/08/21 06:53:54;;;;;;;14.63;6.63;;;;;;;;;;7381987;19;20024;-72
2023/08/21 06:56:19;;;;;;;10.30;6.45;;;;;;;;;;7381185;19;20010;-73
2023/08/21 06:58:44;;;;;;;11.13;6.20;;;;;;;;;;7379696;19;20002;-72
2023/08/21 07:01:10;;;;;;;8.35;5.93;;;;;;;;;;7400133;19;20002;-71
2023/08/21 07:03:35;;;;;;;12.35;6.22;;;;;;;;;;7378725;19;20018;-73
2023/08/21 07:06:01;;;;;;;15.60;6.68;;;;;;;;;;7380662;19;20082;-72
2023/08/21 07:08:28;;;;;;;15.05;6.20;;;;;;;;;;7380680;19;20105;-72
2023/08/21 07:10:54;;;;;;;10.25;6.55;;;;;;;;;;7377767;19;20022;-71
2023/08/21 07:13:19;;;;;;;10.13;5.57;;;;;;;;;;7403357;19;19994;-72
2023/08/21 07:15:45;;;;;;;8.55;6.10;;;;;;;;;;7380718;19;20006;-73
2023/08/21 07:18:11;;;;;;;12.77;6.50;;;;;;;;;;7387919;19;20067;-73
2023/08/21 07:20:36;;;;;;;13.63;6.38;;;;;;;;;;7390448;19;20018;-72
2023/08/21 07:23:02;;;;;;;7.43;5.72;;;;;;;;;;7386273;19;20037;-72
2023/08/21 07:25:28;;;;;;;12.93;6.22;;;;;;;;;;7402097;19;20001;-72
2023/08/21 07:27:54;;;;;;;11.07;6.55;;;;;;;;;;7382504;19;20062;-72
2023/08/21 07:30:19;;;;;;;15.30;6.53;;;;;;;;;;7385508;19;20010;-72
2023/08/21 07:32:45;;;;;;;9.98;6.13;;;;;;;;;;7383466;19;20086;-71
2023/08/21 07:35:11;;;;;;;13.05;6.30;;;;;;;;;;7380133;19;20002;-72
2023/08/21 07:37:36;;;;;;;11.55;6.75;;;;;;;;;;7405019;19;20002;-71
2023/08/21 07:40:02;;;;;;;9.47;6.03;;;;;;;;;;7381268;19;20840;-72
2023/08/21 07:42:28;;;;;;;11.48;6.10;;;;;;;;;;7382455;19;20618;-72
2023/08/21 07:44:53;;;;;;;8.68;6.25;;;;;;;;;;7383735;19;20122;-72
2023/08/21 07:47:18;;;;;;;11.18;6.13;;;;;;;;;;7382621;19;20317;-72
2023/08/21 07:49:43;;;;;;;8.85;5.88;;;;;;;;;;7384381;19;20391;-73
2023/08/21 07:52:09;;;;;;;9.18;6.10;;;;;;;;;;7405643;19;19999;-72
2023/08/21 07:54:34;;;;;;;11.77;6.55;;;;;;;;;;7378358;19;20517;-72
2023/08/21 07:57:00;;;;;;;9.82;6.25;;;;;;;;;;7376339;19;20011;-72
2023/08/21 07:59:25;;;;;;;11.65;6.95;;;;;;;;;;7372709;19;20031;-72
2023/08/21 08:01:50;;;;;;;11.13;7.07;;;;;;;;;;7371719;19;20469;-73
2023/08/21 08:04:16;;;;;;;10.10;6.43;;;;;;;;;;7393273;19;20461;-71
2023/08/21 08:06:41;;;;;;;12.93;6.50;;;;;;;;;;7370229;19;20011;-71
2023/08/21 08:09:07;;;;;;;12.18;6.40;;;;;;;;;;7373487;19;20101;-71
2023/08/21 08:11:33;;;;;;;11.65;6.90;;;;;;;;;;7372989;19;20010;-71
2023/08/21 08:13:58;;;;;;;13.40;7.45;;;;;;;;;;7371654;19;20023;-71
2023/08/21 08:16:23;;;;;;;11.15;6.13;;;;;;;;;;7394148;19;20010;-71
2023/08/21 08:18:49;;;;;;;10.52;6.20;;;;;;;;;;7372658;19;20031;-71
2023/08/21 08:21:14;;;;;;;10.25;6.50;;;;;;;;;;7373252;19;20511;-71
2023/08/21 08:23:40;;;;;;;10.18;6.95;;;;;;;;;;7371516;19;20013;-71
2023/08/21 08:26:05;;;;;;;9.32;6.20;;;;;;;;;;7374469;19;20705;-71
2023/08/21 08:28:31;;;;;;;9.82;7.22;;;;;;;;;;7394875;19;20006;-72
2023/08/21 08:30:57;;;;;;;13.18;5.85;;;;;;;;;;7371741;19;20014;-72
2023/08/21 08:33:23;;;;;;;13.23;6.40;;;;;;;;;;7371698;19;20002;-71
2023/08/21 08:35:48;;;;;;;12.73;6.82;;;;;;;;;;7372214;19;20010;-71
2023/08/21 08:38:14;;;;;;;13.65;6.28;;;;;;;;;;7372179;19;20097;-72
2023/08/21 08:40:45;;;;;;;12.55;6.10;;;;;;;;;;7394204;19;20007;-72
2023/08/21 08:43:12;;;;;;;10.80;6.47;;;;;;;;;;7371687;19;20007;-72
2023/08/21 08:45:37;;;;;;;13.80;6.60;;;;;;;;;;7369731;19;20476;-72
2023/08/21 08:48:05;;;;;;;12.07;6.63;;;;;;;;;;7375035;19;20011;-71
2023/08/21 08:50:31;;;;;;;13.57;6.20;;;;;;;;;;7378000;19;20007;-71
2023/08/21 08:52:57;;;;;;;10.57;6.00;;;;;;;;;;7372662;19;20026;-71
2023/08/21 08:55:23;;;;;;;11.13;5.65;;;;;;;;;;7390910;19;20002;-71
2023/08/21 08:57:48;;;;;;;11.95;6.18;;;;;;;;;;7371722;19;20007;-71
2023/08/21 09:00:14;;;;;;;9.95;6.28;;;;;;;;;;7371795;19;20010;-72
2023/08/21 09:02:40;;;;;;;14.10;6.88;;;;;;;;;;7370826;19;19998;-72
2023/08/21 09:05:06;;;;;;;9.27;5.70;;;;;;;;;;7369603;19;20018;-72
2023/08/21 09:07:32;;;;;;;9.23;5.88;;;;;;;;;;7393532;19;20003;-71
2023/08/21 09:09:57;;;;;;;9.60;5.97;;;;;;;;;;7370059;19;20013;-72
2023/08/21 09:12:22;;;;;;;12.25;5.90;;;;;;;;;;7371585;19;20006;-72
2023/08/21 09:14:48;;;;;;;10.13;6.35;;;;;;;;;;7370729;19;20011;-71
2023/08/21 09:17:13;;;;;;;9.95;6.43;;;;;;;;;;7370949;19;20013;-72
2023/08/21 09:19:39;;;;;;;10.50;6.90;;;;;;;;;;7393359;19;20014;-72
2023/08/21 09:22:13;;;;;;;9.60;6.40;;;;;;;;;;7369948;19;20007;-72
2023/08/21 09:24:39;;;;;;;12.20;6.22;;;;;;;;;;7368692;19;20108;-72
2023/08/21 09:27:13;;;;;;;11.15;6.22;;;;;;;;;;7369312;19;20014;-72
2023/08/21 09:29:42;;;;;;;9.45;6.22;;;;;;;;;;7371483;19;20626;-71
2023/08/21 09:32:07;;;;;;;9.55;6.72;;;;;;;;;;7369742;19;20078;-72
2023/08/21 09:34:36;;;;;;;9.02;6.72;;;;;;;;;;7390460;19;20397;-71
2023/08/21 09:37:05;;;;;;;11.02;7.00;;;;;;;;;;7369618;19;20025;-71
2023/08/21 09:39:35;;;;;;;11.17;6.00;;;;;;;;;;7371317;19;20027;-71
2023/08/21 09:42:01;;;;;;;9.07;6.50;;;;;;;;;;7373604;19;20011;-71
2023/08/21 09:44:27;;;;;;;11.65;6.13;;;;;;;;;;7369526;19;20018;-71
2023/08/21 09:46:52;;;;;;;8.65;6.07;;;;;;;;;;7369514;19;19999;-71
2023/08/21 09:49:20;;;;;;;12.75;5.93;;;;;;;;;;7391423;19;20018;-71
2023/08/21 09:51:45;;;;;;;11.40;5.63;;;;;;;;;;7369404;19;20014;-71
2023/08/21 09:54:11;;;;;;;11.02;6.10;;;;;;;;;;7368729;19;20011;-71
2023/08/21 09:56:37;;;;;;;13.35;6.57;;;;;;;;;;7369085;19;20020;-71
2023/08/21 09:59:03;;;;;;;10.70;6.10;;;;;;;;;;7369777;19;20038;-71
2023/08/21 10:01:32;;;;;;;10.23;5.93;;;;;;;;;;7390068;19;20007;-71
2023/08/21 10:04:02;;;;;;;10.25;6.47;;;;;;;;;;7368814;19;20496;-71
2023/08/21 10:06:29;;;;;;;8.23;5.30;;;;;;;;;;7368156;19;20413;-71
2023/08/21 10:08:56;;;;;;;9.15;6.25;;;;;;;;;;7368849;19;20007;-72
2023/08/21 10:11:21;;;;;;;8.15;5.65;;;;;;;;;;7368989;19;20074;-72
2023/08/21 10:13:50;;;;;;;13.18;5.80;;;;;;;;;;7368925;19;20023;-72
2023/08/21 10:16:16;;;;;;;12.85;5.80;;;;;;;;;;7390055;19;20010;-71
2023/08/21 10:18:45;;;;;;;9.63;5.32;;;;;;;;;;7370070;19;20483;-71
2023/08/21 10:21:11;;;;;;;7.65;5.45;;;;;;;;;;7369006;19;20037;-73
2023/08/21 10:23:37;;;;;;;8.18;5.68;;;;;;;;;;7369302;19;20007;-72
2023/08/21 10:26:05;;;;;;;10.27;5.70;;;;;;;;;;7369483;19;20020;-72
2023/08/21 10:28:59;;;;;;;10.02;5.60;;;;;;;;;;7390704;19;20007;-72
2023/08/21 10:31:35;;;;;;;8.73;5.60;;;;;;;;;;7370196;19;20018;-72
2023/08/21 10:34:11;;;;;;;9.23;5.47;;;;;;;;;;7367384;19;20009;-71
2023/08/21 10:36:42;;;;;;;8.40;5.50;;;;;;;;;;7367695;19;20018;-74
2023/08/21 10:39:18;;;;;;;9.60;5.40;;;;;;;;;;7368982;19;20003;-72
2023/08/21 10:42:04;;;;;;;10.60;5.28;;;;;;;;;;7370040;19;20016;-72
2023/08/21 10:45:05;;;;;;;8.45;5.00;;;;;;;;;;7367668;19;20006;-73
2023/08/21 10:47:31;;;;;;;7.55;5.15;;;;;;;;;;7367874;19;20006;-72
2023/08/21 10:49:58;;;;;;;9.20;5.32;;;;;;;;;;7369636;19;20021;-72
2023/08/21 10:52:47;;;;;;;8.55;5.22;;;;;;;;;;7390436;19;20006;-72
2023/08/21 10:55:14;;;;;;;7.40;4.47;;;;;;;;;;7367067;19;20038;-73
2023/08/21 10:57:42;;;;;;;8.05;4.75;;;;;;;;;;7369151;19;20428;-72
2023/08/21 11:00:13;;;;;;;8.10;4.70;;;;;;;;;;7368982;19;20460;-72
2023/08/21 11:02:50;;;;;;;7.43;4.72;;;;;;;;;;7367448;19;20020;-73
2023/08/21 11:05:15;;;;;;;7.65;4.80;;;;;;;;;;7366154;19;20495;-73
2023/08/21 11:07:45;;;;;;;6.90;4.50;;;;;;;;;;7389990;19;20003;-73
2023/08/21 11:10:13;;;;;;;8.43;4.40;;;;;;;;;;7368068;19;20014;-73
2023/08/21 11:12:52;;;;;;;5.68;3.92;;;;;;;;;;7367966;19;20015;-72
2023/08/21 11:15:17;;;;;;;9.30;4.28;;;;;;;;;;7366618;19;20010;-72
2023/08/21 11:17:50;;;;;;;9.13;4.50;;;;;;;;;;7366987;19;20010;-72
2023/08/21 11:20:15;;;;;;;8.05;4.38;;;;;;;;;;7368887;19;20422;-73
2023/08/21 11:22:40;;;;;;;7.60;3.88;;;;;;;;;;7390650;19;20003;-73
2023/08/21 11:25:06;;;;;;;6.25;3.97;;;;;;;;;;7366479;19;20009;-73
2023/08/21 11:27:31;;;;;;;7.20;3.67;;;;;;;;;;7367770;19;20015;-73
2023/08/21 11:29:57;;;;;;;14.00;3.90;;;;;;;;;;7368545;19;20006;-73
2023/08/21 11:32:23;;;;;;;6.78;3.78;;;;;;;;;;7371727;19;20019;-73
2023/08/21 11:34:54;;;;;;;6.95;4.28;;;;;;;;;;7373289;19;20032;-73
2023/08/21 11:37:22;;;;;;;5.53;3.50;;;;;;;;;;7396509;19;20007;-72
2023/08/21 11:39:48;;;;;;;5.47;3.53;;;;;;;;;;7373776;19;20002;-72
2023/08/21 11:42:15;;;;;;;7.95;3.40;;;;;;;;;;7374466;19;20010;-72
2023/08/21 11:44:41;;;;;;;6.03;3.80;;;;;;;;;;7373055;19;20497;-72
2023/08/21 11:47:06;;;;;;;6.57;3.25;;;;;;;;;;7373411;19;20006;-72
2023/08/21 11:49:32;;;;;;;6.80;3.20;;;;;;;;;;7396704;19;20491;-72
2023/08/21 11:51:57;;;;;;;7.47;3.33;;;;;;;;;;7374387;19;20011;-72
2023/08/21 11:54:22;;;;;;;7.20;3.40;;;;;;;;;;7372027;19;20018;-71
2023/08/21 11:56:47;;;;;;;5.07;3.17;;;;;;;;;;7374183;19;20608;-72
2023/08/21 11:59:22;;;;;;;4.78;3.05;;;;;;;;;;7373386;19;20311;-72
2023/08/21 12:01:51;;;;;;;4.97;3.30;;;;;;;;;;7372947;19;20011;-72
2023/08/21 12:04:17;;;;;;;5.75;3.17;;;;;;;;;;7393150;19;20006;-72
2023/08/21 12:06:45;;;;;;;4.63;2.85;;;;;;;;;;7371618;19;20030;-73
2023/08/21 12:09:11;;;;;;;5.25;2.90;;;;;;;;;;7372424;19;20023;-73
2023/08/21 12:11:38;;;;;;;5.00;3.10;;;;;;;;;;7372695;19;20097;-73
2023/08/21 12:14:03;;;;;;;5.70;2.97;;;;;;;;;;7371624;19;20067;-72
2023/08/21 12:16:29;;;;;;;5.18;2.85;;;;;;;;;;7395564;19;20036;-73
2023/08/21 12:18:57;;;;;;;5.55;2.97;;;;;;;;;;7373216;19;20018;-73
2023/08/21 12:21:22;;;;;;;6.55;2.80;;;;;;;;;;7373602;19;20031;-72
2023/08/21 12:23:48;;;;;;;4.97;2.83;;;;;;;;;;7372667;19;20014;-72
2023/08/21 12:26:20;;;;;;;7.83;3.10;;;;;;;;;;7372455;19;20015;-72
2023/08/21 12:28:46;;;;;;;6.20;2.85;;;;;;;;;;7374524;19;20322;-72
2023/08/21 12:31:11;;;;;;;4.47;2.90;;;;;;;;;;7395969;19;20490;-73
2023/08/21 12:33:36;;;;;;;5.93;2.50;;;;;;;;;;7374129;19;20026;-72
2023/08/21 12:36:03;;;;;;;3.88;2.50;;;;;;;;;;7388322;19;20468;-72
2023/08/21 12:38:29;;;;;;;6.22;2.85;;;;;;;;;;7389139;19;20006;-72
2023/08/21 12:40:54;;;;;;;5.13;2.40;;;;;;;;;;7380155;19;20358;-72
2023/08/21 12:43:19;;;;;;;4.63;2.45;;;;;;;;;;7394873;19;20532;-72
2023/08/21 12:45:45;;;;;;;5.50;2.60;;;;;;;;;;7365735;19;20543;-73
2023/08/21 12:48:10;;;;;;;3.22;2.20;;;;;;;;;;7374716;19;19998;-72
2023/08/21 12:50:36;;;;;;;5.07;2.30;;;;;;;;;;7375562;19;20010;-72
2023/08/21 12:53:01;;;;;;;4.38;2.35;;;;;;;;;;7373971;19;21192;-71
2023/08/21 12:55:28;;;;;;;3.72;2.20;;;;;;;;;;7392175;19;19994;-71
2023/08/21 12:57:53;;;;;;;4.13;2.50;;;;;;;;;;7372341;19;19999;-71
2023/08/21 13:00:18;;;;;;;3.67;2.65;;;;;;;;;;7372692;19;20010;-72
2023/08/21 13:02:44;;;;;;;3.73;2.10;;;;;;;;;;7371245;19;20015;-72
2023/08/21 13:05:09;;;;;;;5.32;2.40;;;;;;;;;;7371595;19;20207;-72
2023/08/21 13:07:34;;;;;;;5.80;2.80;;;;;;;;;;7392379;19;20080;-72
2023/08/21 13:09:59;;;;;;;3.60;2.20;;;;;;;;;;7372152;19;20259;-73
2023/08/21 13:12:25;;;;;;;5.23;2.27;;;;;;;;;;7371574;19;20247;-73
2023/08/21 13:14:50;;;;;;;5.83;2.47;;;;;;;;;;7371974;19;20728;-73
2023/08/21 13:17:15;;;;;;;2.63;1.90;;;;;;;;;;7371139;19;20226;-72
2023/08/21 13:19:41;;;;;;;4.43;2.20;;;;;;;;;;7393703;19;20248;-72
2023/08/21 13:22:06;;;;;;;3.72;2.05;;;;;;;;;;7371971;19;20052;-72
2023/08/21 13:24:32;;;;;;;2.97;1.97;;;;;;;;;;7369103;19;20014;-73
2023/08/21 13:26:57;;;;;;;3.85;2.20;;;;;;;;;;7371492;19;20243;-72
2023/08/21 13:29:23;;;;;;;6.85;2.17;;;;;;;;;;7371266;19;20069;-72
2023/08/21 13:31:48;;;;;;;3.90;2.30;;;;;;;;;;7371354;19;20002;-72
2023/08/21 13:34:13;;;;;;;5.00;2.65;;;;;;;;;;7390549;19;20471;-72
2023/08/21 13:36:39;;;;;;;3.55;2.15;;;;;;;;;;7369560;19;20006;-72
2023/08/21 13:39:05;;;;;;;3.53;2.20;;;;;;;;;;7370614;19;20108;-72
2023/08/21 13:41:31;;;;;;;5.20;2.20;;;;;;;;;;7371731;19;20018;-72
2023/08/21 13:43:56;;;;;;;7.43;2.35;;;;;;;;;;7370324;19;20015;-72
2023/08/21 13:46:22;;;;;;;3.67;2.25;;;;;;;;;;7391302;19;20002;-73
2023/08/21 13:48:47;;;;;;;5.10;2.10;;;;;;;;;;7369926;19;20018;-73
2023/08/21 13:51:13;;;;;;;5.05;2.00;;;;;;;;;;7370703;19;20015;-73
2023/08/21 13:53:38;;;;;;;3.73;2.17;;;;;;;;;;7370174;19;20404;-73
2023/08/21 13:56:03;;;;;;;5.63;2.20;;;;;;;;;;7369115;19;20236;-73
2023/08/21 13:58:29;;;;;;;5.32;1.73;;;;;;;;;;7391938;19;20034;-73
2023/08/21 14:00:55;;;;;;;7.57;2.30;;;;;;;;;;7370023;19;20007;-73
2023/08/21 14:03:21;;;;;;;4.45;2.30;;;;;;;;;;7370235;19;20010;-72
2023/08/21 14:05:46;;;;;;;4.10;2.20;;;;;;;;;;7369278;19;20018;-73
2023/08/21 14:08:11;;;;;;;5.25;2.20;;;;;;;;;;7370500;19;20073;-73
2023/08/21 14:10:37;;;;;;;7.22;2.10;;;;;;;;;;7391494;19;20002;-73
2023/08/21 14:13:03;;;;;;;3.90;2.38;;;;;;;;;;7369536;19;20039;-72
2023/08/21 14:15:29;;;;;;;3.15;2.13;;;;;;;;;;7369098;19;20010;-73
2023/08/21 14:17:54;;;;;;;3.10;2.05;;;;;;;;;;7370012;19;20011;-73
2023/08/21 14:20:19;;;;;;;4.97;2.20;;;;;;;;;;7369507;19;20019;-73
2023/08/21 14:22:45;;;;;;;3.40;1.93;;;;;;;;;;7370087;19;20019;-73
2023/08/21 14:25:10;;;;;;;6.93;2.20;;;;;;;;;;7388930;19;20309;-73
2023/08/21 14:27:35;;;;;;;7.70;2.88;;;;;;;;;;7368985;19;20010;-73
2023/08/21 14:30:03;;;;;;;4.72;2.00;;;;;;;;;;7369030;19;20003;-73